createdAt,value
2017-06-03T00:00:31.836Z,14.40
2017-06-03T00:02:58.764Z,14.30
2017-06-03T00:05:25.688Z,14.40
2017-06-03T00:07:53.420Z,14.30
2017-06-03T00:10:20.331Z,14.30
2017-06-03T00:12:47.268Z,14.40
2017-06-03T00:15:14.193Z,14.40
2017-06-03T00:17:41.108Z,14.40
2017-06-03T00:20:08.059Z,14.40
2017-06-03T00:22:35.088Z,14.40
2017-06-03T00:25:01.993Z,14.40
2017-06-03T00:27:28.965Z,14.40
2017-06-03T00:29:55.868Z,14.40
2017-06-03T00:32:22.769Z,14.50
2017-06-03T00:34:49.707Z,14.50
2017-06-03T00:37:16.638Z,14.50
2017-06-03T00:39:43.544Z,14.50
2017-06-03T00:42:10.484Z,14.40
2017-06-03T00:44:37.393Z,14.40
2017-06-03T00:47:04.295Z,14.40
2017-06-03T00:49:31.260Z,14.40
2017-06-03T00:51:58.170Z,14.40
2017-06-03T00:54:25.076Z,14.30
2017-06-03T00:56:52.018Z,14.30
2017-06-03T00:59:18.961Z,14.20
2017-06-03T01:01:45.872Z,14.30
2017-06-03T01:04:12.826Z,14.20
2017-06-03T01:06:39.738Z,14.30
2017-06-03T01:09:06.647Z,14.30
2017-06-03T01:11:33.636Z,14.40
2017-06-03T01:14:00.560Z,14.40
2017-06-03T01:16:27.480Z,14.30
2017-06-03T01:18:54.421Z,14.20
2017-06-03T01:21:21.356Z,14.20
2017-06-03T01:23:48.305Z,14.20
2017-06-03T01:26:15.211Z,14.10
2017-06-03T01:28:42.113Z,14.10
2017-06-03T01:31:09.085Z,14.00
2017-06-03T01:33:35.996Z,14.00
2017-06-03T01:36:02.920Z,14.00
2017-06-03T01:38:29.866Z,13.90
2017-06-03T01:40:56.808Z,13.80
2017-06-03T01:43:23.766Z,13.80
2017-06-03T01:45:50.704Z,13.70
2017-06-03T01:48:17.642Z,13.80
2017-06-03T01:50:44.616Z,13.90
2017-06-03T01:53:11.540Z,13.90
2017-06-03T01:55:38.460Z,13.80
2017-06-03T01:58:05.395Z,13.80
2017-06-03T02:00:32.336Z,13.80
2017-06-03T02:02:59.249Z,13.90
2017-06-03T02:05:26.188Z,13.90
2017-06-03T02:07:53.096Z,13.80
2017-06-03T02:10:20.000Z,13.60
2017-06-03T02:12:46.960Z,13.60
2017-06-03T02:15:13.884Z,13.60
2017-06-03T02:17:40.797Z,13.70
2017-06-03T02:20:07.738Z,13.60
2017-06-03T02:22:34.665Z,13.50
2017-06-03T02:25:01.576Z,13.50
2017-06-03T02:27:28.534Z,13.40
2017-06-03T02:29:57.255Z,13.50
2017-06-03T02:32:24.152Z,13.40
2017-06-03T02:34:51.120Z,13.40
2017-06-03T02:37:18.024Z,13.40
2017-06-03T02:39:44.927Z,13.40
2017-06-03T02:42:11.916Z,13.40
2017-06-03T02:44:38.844Z,13.40
2017-06-03T02:47:05.764Z,13.40
2017-06-03T02:49:32.708Z,13.30
2017-06-03T02:51:59.622Z,13.30
2017-06-03T02:54:26.540Z,13.30
2017-06-03T02:56:53.487Z,13.30
2017-06-03T02:59:20.392Z,13.30
2017-06-03T03:01:47.317Z,13.30
2017-06-03T03:04:14.243Z,13.30
2017-06-03T03:06:41.158Z,13.30
2017-06-03T03:09:08.099Z,13.40
2017-06-03T03:11:35.022Z,13.40
2017-06-03T03:14:01.945Z,13.40
2017-06-03T03:16:28.881Z,13.40
2017-06-03T03:18:55.792Z,13.40
2017-06-03T03:21:22.701Z,13.40
2017-06-03T03:23:49.640Z,13.40
2017-06-03T03:26:16.624Z,13.40
2017-06-03T03:28:43.544Z,13.50
2017-06-03T03:31:10.447Z,13.50
2017-06-03T03:33:37.397Z,13.50
2017-06-03T03:36:04.324Z,13.50
2017-06-03T03:38:31.231Z,13.50
2017-06-03T03:40:58.174Z,13.30
2017-06-03T03:43:25.087Z,13.30
2017-06-03T03:45:52.033Z,13.30
2017-06-03T03:48:19.000Z,13.20
2017-06-03T03:50:45.913Z,13.10
2017-06-03T03:53:12.828Z,13.10
2017-06-03T03:55:39.772Z,13.20
2017-06-03T03:58:06.715Z,13.30
2017-06-03T04:00:33.660Z,13.40
2017-06-03T04:03:00.572Z,13.40
2017-06-03T04:05:27.528Z,13.60
2017-06-03T04:07:54.453Z,13.70
2017-06-03T04:10:21.358Z,13.80
2017-06-03T04:12:48.317Z,13.90
2017-06-03T04:15:15.223Z,13.90
2017-06-03T04:17:42.132Z,14.00
2017-06-03T04:20:09.071Z,14.10
2017-06-03T04:22:36.074Z,14.10
2017-06-03T04:25:02.979Z,14.20
2017-06-03T04:27:29.931Z,14.10
2017-06-03T04:29:56.861Z,14.20
2017-06-03T04:32:23.780Z,14.30
2017-06-03T04:34:50.715Z,14.40
2017-06-03T04:37:17.676Z,14.50
2017-06-03T04:39:44.585Z,14.60
2017-06-03T04:42:11.499Z,14.80
2017-06-03T04:44:38.451Z,14.90
2017-06-03T04:47:05.357Z,14.80
2017-06-03T04:49:32.264Z,14.80
2017-06-03T04:51:59.208Z,14.80
2017-06-03T04:54:26.142Z,14.90
2017-06-03T04:56:53.075Z,15.00
2017-06-03T04:59:20.020Z,15.20
2017-06-03T05:01:46.928Z,15.30
2017-06-03T05:04:13.835Z,15.50
2017-06-03T05:06:40.783Z,15.60
2017-06-03T05:09:07.753Z,15.70
2017-06-03T05:11:34.664Z,15.80
2017-06-03T05:14:01.625Z,15.80
2017-06-03T05:16:28.540Z,15.80
2017-06-03T05:18:55.459Z,15.70
2017-06-03T05:21:22.424Z,15.80
2017-06-03T05:23:49.336Z,15.80
2017-06-03T05:27:01.237Z,15.80
2017-06-03T05:29:27.424Z,15.50
2017-06-03T05:31:54.188Z,15.70
2017-06-03T05:34:20.473Z,15.60
2017-06-03T05:36:46.649Z,15.60
2017-06-03T05:39:12.823Z,15.80
2017-06-03T05:41:39.044Z,15.80
2017-06-03T05:44:05.217Z,15.90
2017-06-03T05:46:31.406Z,15.80
2017-06-03T05:48:57.600Z,16.10
2017-06-03T05:51:23.789Z,16.40
2017-06-03T05:53:49.989Z,16.60
2017-06-03T05:56:16.172Z,16.90
2017-06-03T05:58:42.384Z,17.20
2017-06-03T06:01:08.588Z,17.70
2017-06-03T06:03:34.768Z,18.20
2017-06-03T06:06:00.965Z,18.50
2017-06-03T06:08:27.135Z,19.10
2017-06-03T06:10:54.092Z,19.50
2017-06-03T06:13:20.332Z,19.50
2017-06-03T06:15:46.517Z,19.70
2017-06-03T06:18:12.697Z,19.90
2017-06-03T06:20:38.935Z,20.10
2017-06-03T06:23:05.120Z,20.10
2017-06-03T06:25:31.333Z,19.90
2017-06-03T06:27:57.503Z,20.30
2017-06-03T06:30:23.713Z,20.60
2017-06-03T06:32:49.881Z,21.10
2017-06-03T06:35:16.072Z,21.40
2017-06-03T06:37:42.285Z,21.70
2017-06-03T06:40:08.452Z,22.00
2017-06-03T06:42:34.715Z,22.00
2017-06-03T06:45:01.628Z,22.10
2017-06-03T06:47:27.825Z,22.10
2017-06-03T06:49:54.015Z,22.40
2017-06-03T06:52:20.924Z,23.10
2017-06-03T06:54:47.128Z,23.10
2017-06-03T06:57:13.295Z,23.30
2017-06-03T06:59:39.464Z,23.70
2017-06-03T07:02:05.672Z,24.20
2017-06-03T07:04:32.588Z,24.90
2017-06-03T07:06:58.764Z,24.90
2017-06-03T07:09:24.979Z,25.10
2017-06-03T07:11:51.169Z,25.50
2017-06-03T07:14:17.451Z,25.70
2017-06-03T07:16:43.661Z,25.90
2017-06-03T07:19:09.832Z,26.10
2017-06-03T07:21:36.036Z,26.20
2017-06-03T07:24:02.245Z,26.20
2017-06-03T07:26:28.408Z,26.30
2017-06-03T07:28:54.579Z,26.70
2017-06-03T07:31:21.575Z,27.30
2017-06-03T07:33:47.764Z,27.30
2017-06-03T07:36:13.935Z,27.10
2017-06-03T07:38:40.141Z,27.30
2017-06-03T07:41:06.377Z,27.40
2017-06-03T07:43:32.592Z,27.50
2017-06-03T07:45:58.764Z,27.60
2017-06-03T07:48:25.055Z,28.00
2017-06-03T07:50:51.232Z,28.30
2017-06-03T07:53:17.429Z,28.10
2017-06-03T07:55:43.621Z,28.10
2017-06-03T07:58:09.828Z,28.20
2017-06-03T08:00:36.781Z,29.10
2017-06-03T08:03:02.965Z,29.00
2017-06-03T08:05:29.189Z,28.10
2017-06-03T08:07:55.368Z,28.00
2017-06-03T08:10:21.565Z,28.30
2017-06-03T08:12:47.772Z,28.70
2017-06-03T08:15:13.957Z,29.10
2017-06-03T08:17:40.137Z,29.60
2017-06-03T08:20:06.474Z,30.10
2017-06-03T08:22:32.665Z,30.30
2017-06-03T08:24:58.840Z,30.90
2017-06-03T08:27:25.052Z,31.30
2017-06-03T08:29:51.244Z,31.50
2017-06-03T08:32:17.436Z,31.50
2017-06-03T08:34:43.687Z,31.70
2017-06-03T08:37:09.872Z,32.00
2017-06-03T08:39:36.825Z,32.40
2017-06-03T08:42:03.920Z,32.70
2017-06-03T08:44:30.112Z,32.60
2017-06-03T08:46:56.293Z,33.30
2017-06-03T08:49:22.528Z,33.70
2017-06-03T08:51:48.705Z,34.20
2017-06-03T08:54:14.871Z,34.10
2017-06-03T08:56:41.105Z,34.50
2017-06-03T08:59:07.368Z,34.90
2017-06-03T09:01:34.300Z,35.50
2017-06-03T09:04:01.240Z,34.10
2017-06-03T09:06:27.419Z,34.10
2017-06-03T09:08:53.634Z,30.10
2017-06-03T09:11:19.862Z,30.50
2017-06-03T09:13:46.037Z,32.50
2017-06-03T09:16:12.204Z,34.00
2017-06-03T09:18:38.441Z,34.70
2017-06-03T09:21:04.631Z,35.00
2017-06-03T09:23:30.817Z,34.40
2017-06-03T09:25:57.024Z,33.90
2017-06-03T09:28:23.203Z,34.20
2017-06-03T09:30:49.463Z,32.80
2017-06-03T09:33:15.663Z,33.80
2017-06-03T09:35:41.865Z,34.60
2017-06-03T09:38:08.149Z,34.90
2017-06-03T09:40:34.367Z,35.80
2017-06-03T09:43:01.293Z,36.00
2017-06-03T09:45:27.464Z,36.00
2017-06-03T09:47:53.676Z,36.50
2017-06-03T09:50:19.864Z,36.80
2017-06-03T09:52:46.059Z,37.30
2017-06-03T09:55:12.277Z,37.10
2017-06-03T09:57:38.447Z,37.20
2017-06-03T10:00:04.680Z,36.70
2017-06-03T10:02:30.908Z,35.70
2017-06-03T10:04:57.132Z,35.80
2017-06-03T10:07:23.372Z,34.90
2017-06-03T10:09:49.576Z,33.40
2017-06-03T10:12:15.760Z,32.30
2017-06-03T10:14:41.929Z,30.70
2017-06-03T10:17:08.149Z,29.80
2017-06-03T10:19:34.341Z,29.30
2017-06-03T10:22:00.512Z,29.10
2017-06-03T10:24:26.733Z,28.80
2017-06-03T10:26:52.923Z,28.70
2017-06-03T10:29:19.144Z,28.60
2017-06-03T10:31:45.331Z,28.40
2017-06-03T10:34:11.508Z,28.20
2017-06-03T10:36:37.730Z,28.30
2017-06-03T10:39:03.933Z,28.30
2017-06-03T10:41:30.863Z,28.40
2017-06-03T10:43:57.839Z,28.50
2017-06-03T10:46:24.012Z,28.50
2017-06-03T10:48:50.193Z,28.60
2017-06-03T10:51:16.415Z,28.70
2017-06-03T10:53:42.600Z,28.60
2017-06-03T10:56:08.836Z,28.10
2017-06-03T10:58:35.080Z,27.90
2017-06-03T11:01:02.028Z,26.40
2017-06-03T11:03:28.949Z,26.00
2017-06-03T11:05:55.252Z,26.00
2017-06-03T11:08:21.467Z,26.20
2017-06-03T11:10:47.667Z,25.80
2017-06-03T11:13:13.875Z,25.00
2017-06-03T11:15:40.084Z,24.60
2017-06-03T11:18:06.264Z,24.40
2017-06-03T11:20:32.484Z,24.50
2017-06-03T11:22:58.669Z,25.00
2017-06-03T11:25:24.924Z,25.10
2017-06-03T11:27:51.887Z,24.80
2017-06-03T11:30:18.106Z,24.80
2017-06-03T11:32:59.466Z,25.50
2017-06-03T11:35:26.391Z,26.70
2017-06-03T11:37:52.575Z,26.70
2017-06-03T11:40:18.811Z,27.00
2017-06-03T11:42:44.999Z,27.30
2017-06-03T11:45:11.940Z,27.60
2017-06-03T11:47:38.163Z,27.60
2017-06-03T11:50:05.088Z,27.80
2017-06-03T11:52:31.283Z,27.80
2017-06-03T11:54:57.495Z,28.10
2017-06-03T11:57:23.697Z,28.30
2017-06-03T11:59:50.606Z,28.20
2017-06-03T12:02:16.831Z,28.20
2017-06-03T12:04:43.024Z,27.70
2017-06-03T12:07:09.217Z,27.70
2017-06-03T12:09:36.192Z,27.40
2017-06-03T12:12:02.403Z,27.40
2017-06-03T12:14:28.601Z,27.50
2017-06-03T12:16:54.824Z,27.30
2017-06-03T12:19:21.004Z,27.40
2017-06-03T12:21:47.201Z,27.60
2017-06-03T12:24:14.160Z,27.80
2017-06-03T12:26:40.359Z,27.80
2017-06-03T12:29:06.560Z,27.90
2017-06-03T12:31:32.797Z,28.00
2017-06-03T12:33:58.981Z,28.10
2017-06-03T12:36:25.174Z,28.20
2017-06-03T12:38:52.149Z,28.10
2017-06-03T12:41:18.344Z,28.10
2017-06-03T12:43:44.532Z,28.00
2017-06-03T12:46:10.754Z,28.00
2017-06-03T12:48:37.012Z,28.00
2017-06-03T12:51:03.187Z,27.80
2017-06-03T12:53:29.459Z,27.70
2017-06-03T12:55:55.654Z,27.40
2017-06-03T12:58:21.872Z,27.30
2017-06-03T13:00:48.048Z,27.00
2017-06-03T13:03:14.225Z,27.30
2017-06-03T13:05:40.461Z,27.50
2017-06-03T13:08:06.640Z,26.90
2017-06-03T13:10:32.824Z,27.30
2017-06-03T13:12:59.077Z,27.20
2017-06-03T13:15:25.260Z,27.40
2017-06-03T13:17:51.473Z,27.20
2017-06-03T13:20:18.535Z,26.90
2017-06-03T13:22:44.738Z,26.90
2017-06-03T13:25:11.672Z,27.10
2017-06-03T13:27:37.884Z,27.10
2017-06-03T13:30:04.056Z,27.20
2017-06-03T13:32:30.241Z,27.20
2017-06-03T13:34:56.488Z,27.20
2017-06-03T13:37:23.480Z,27.10
2017-06-03T13:39:49.659Z,27.10
2017-06-03T13:42:15.904Z,27.10
2017-06-03T13:44:42.102Z,27.10
2017-06-03T13:47:08.901Z,27.10
2017-06-03T13:49:35.130Z,27.10
2017-06-03T13:52:01.316Z,26.90
2017-06-03T13:54:28.262Z,26.20
2017-06-03T13:56:55.228Z,25.90
2017-06-03T13:59:21.416Z,25.90
2017-06-03T14:01:47.633Z,25.70
2017-06-03T14:04:13.848Z,25.70
2017-06-03T14:06:40.043Z,25.60
2017-06-03T14:09:06.236Z,25.50
2017-06-03T14:11:33.236Z,25.30
2017-06-03T14:13:59.477Z,25.30
2017-06-03T14:16:25.671Z,25.40
2017-06-03T14:18:51.913Z,25.30
2017-06-03T14:21:18.131Z,25.40
2017-06-03T14:23:44.326Z,25.40
2017-06-03T14:26:10.611Z,25.50
2017-06-03T14:28:36.812Z,25.60
2017-06-03T14:31:03.028Z,25.70
2017-06-03T14:33:29.245Z,25.70
2017-06-03T14:35:55.437Z,25.70
2017-06-03T14:38:21.636Z,25.60
2017-06-03T14:40:47.880Z,25.60
2017-06-03T14:43:14.089Z,25.60
2017-06-03T14:45:40.283Z,25.50
2017-06-03T14:48:06.506Z,25.50
2017-06-03T14:50:32.742Z,25.60
2017-06-03T14:52:59.264Z,25.50
2017-06-03T14:55:26.262Z,25.40
2017-06-03T14:57:52.898Z,25.40
2017-06-03T15:00:19.129Z,25.40
2017-06-03T15:02:45.333Z,25.30
2017-06-03T15:05:11.620Z,25.40
2017-06-03T15:07:37.845Z,25.40
2017-06-03T15:10:04.070Z,25.50
2017-06-03T15:12:30.307Z,25.50
2017-06-03T15:14:57.129Z,25.60
2017-06-03T15:17:23.333Z,25.50
2017-06-03T15:19:49.701Z,25.40
2017-06-03T15:22:15.906Z,25.50
2017-06-03T15:24:42.146Z,25.50
2017-06-03T15:27:08.381Z,25.50
2017-06-03T15:29:34.583Z,25.50
2017-06-03T15:32:02.033Z,25.40
2017-06-03T15:34:28.336Z,25.30
2017-06-03T15:36:54.523Z,24.70
2017-06-03T15:39:20.719Z,24.30
2017-06-03T15:41:46.966Z,23.90
2017-06-03T15:44:13.196Z,24.10
2017-06-03T15:46:39.405Z,24.30
2017-06-03T15:49:05.637Z,24.50
2017-06-03T15:51:31.836Z,24.50
2017-06-03T15:53:58.027Z,24.40
2017-06-03T15:56:24.261Z,24.30
2017-06-03T15:58:50.464Z,24.40
2017-06-03T16:01:16.656Z,24.30
2017-06-03T16:03:42.948Z,24.30
2017-06-03T16:06:09.144Z,24.40
2017-06-03T16:08:35.323Z,24.50
2017-06-03T16:11:01.610Z,24.40
2017-06-03T16:13:27.792Z,24.40
2017-06-03T16:15:53.971Z,24.20
2017-06-03T16:18:20.994Z,24.00
2017-06-03T16:20:47.217Z,24.00
2017-06-03T16:23:13.465Z,24.10
2017-06-03T16:25:39.758Z,24.10
2017-06-03T16:28:06.014Z,24.00
2017-06-03T16:30:32.231Z,23.90
2017-06-03T16:32:58.478Z,23.80
2017-06-03T16:35:24.677Z,23.90
2017-06-03T16:37:51.025Z,24.00
2017-06-03T16:40:17.250Z,24.00
2017-06-03T16:42:43.448Z,23.90
2017-06-03T16:45:09.701Z,23.90
2017-06-03T16:47:35.896Z,24.00
2017-06-03T16:50:02.340Z,23.80
2017-06-03T16:52:28.648Z,23.80
2017-06-03T16:54:54.847Z,23.80
2017-06-03T16:57:21.787Z,23.60
2017-06-03T16:59:48.041Z,23.60
2017-06-03T17:02:14.283Z,23.50
2017-06-03T17:04:40.516Z,23.60
2017-06-03T17:07:06.736Z,23.50
2017-06-03T17:09:33.659Z,23.50
2017-06-03T17:11:59.879Z,23.50
2017-06-03T17:14:26.139Z,23.40
2017-06-03T17:16:52.372Z,23.40
2017-06-03T17:19:18.572Z,23.40
2017-06-03T17:21:48.005Z,23.30
2017-06-03T17:24:14.221Z,23.30
2017-06-03T17:26:40.426Z,23.30
2017-06-03T17:29:06.665Z,23.10
2017-06-03T17:31:32.865Z,23.10
2017-06-03T17:33:59.140Z,23.10
2017-06-03T17:36:25.333Z,23.00
2017-06-03T17:38:51.613Z,22.90
2017-06-03T17:41:17.873Z,22.90
2017-06-03T17:43:44.071Z,23.00
2017-06-03T17:46:10.263Z,22.90
2017-06-03T17:48:36.787Z,22.90
2017-06-03T17:51:03.221Z,22.80
2017-06-03T17:53:31.126Z,22.80
2017-06-03T17:55:57.382Z,22.70
2017-06-03T17:58:23.723Z,22.60
2017-06-03T18:00:49.928Z,22.60
2017-06-03T18:03:16.185Z,22.50
2017-06-03T18:05:42.377Z,22.40
2017-06-03T18:08:08.622Z,22.30
2017-06-03T18:10:35.559Z,22.10
2017-06-03T18:13:01.763Z,22.10
2017-06-03T18:15:28.005Z,22.10
2017-06-03T18:17:54.196Z,22.00
2017-06-03T18:20:20.450Z,21.90
2017-06-03T18:22:46.736Z,21.90
2017-06-03T18:25:14.801Z,21.80
2017-06-03T18:27:41.061Z,21.80
2017-06-03T18:30:07.361Z,21.90
2017-06-03T18:32:33.560Z,21.80
2017-06-03T18:34:59.745Z,21.80
2017-06-03T18:37:25.996Z,21.80
2017-06-03T18:39:52.207Z,21.70
2017-06-03T18:42:18.393Z,21.70
2017-06-03T18:44:44.634Z,21.60
2017-06-03T18:47:10.826Z,21.60
2017-06-03T18:49:37.818Z,21.60
2017-06-03T18:52:04.005Z,21.50
2017-06-03T18:54:30.943Z,21.30
2017-06-03T18:56:57.187Z,21.30
2017-06-03T18:59:23.401Z,21.30
2017-06-03T19:01:49.596Z,21.20
2017-06-03T19:04:15.849Z,21.20
2017-06-03T19:06:42.085Z,21.20
2017-06-03T19:09:09.087Z,21.00
2017-06-03T19:11:35.347Z,21.00
2017-06-03T19:14:01.537Z,20.90
2017-06-03T19:16:27.728Z,20.90
2017-06-03T19:18:53.974Z,20.90
2017-06-03T19:21:20.186Z,20.90
2017-06-03T19:23:46.406Z,21.00
2017-06-03T19:26:12.658Z,20.90
2017-06-03T19:28:38.881Z,20.70
2017-06-03T19:31:05.084Z,20.70
2017-06-03T19:33:31.318Z,20.70
2017-06-03T19:35:57.508Z,20.70
2017-06-03T19:38:23.726Z,20.70
2017-06-03T19:40:49.988Z,20.70
2017-06-03T19:43:16.933Z,20.70
2017-06-03T19:45:43.141Z,20.60
2017-06-03T19:48:09.362Z,20.50
2017-06-03T19:50:35.621Z,20.50
2017-06-03T19:53:02.557Z,20.30
2017-06-03T19:55:28.754Z,20.30
2017-06-03T19:57:54.987Z,20.20
2017-06-03T20:00:21.232Z,20.20
2017-06-03T20:02:48.172Z,20.10
2017-06-03T20:05:15.093Z,20.20
2017-06-03T20:07:41.370Z,20.10
2017-06-03T20:10:07.577Z,20.20
2017-06-03T20:12:33.777Z,20.20
2017-06-03T20:15:00.038Z,20.20
2017-06-03T20:17:26.957Z,20.00
2017-06-03T20:19:53.145Z,20.00
2017-06-03T20:22:19.409Z,19.90
2017-06-03T20:24:45.604Z,19.90
2017-06-03T20:27:11.816Z,19.80
2017-06-03T20:29:38.070Z,19.70
2017-06-03T20:32:04.262Z,19.70
2017-06-03T20:34:30.472Z,19.60
2017-06-03T20:36:57.589Z,19.50
2017-06-03T20:39:23.810Z,19.50
2017-06-03T20:41:50.072Z,19.40
2017-06-03T20:44:17.020Z,19.20
2017-06-03T20:46:43.980Z,19.10
2017-06-03T20:49:10.204Z,19.10
2017-06-03T20:51:36.405Z,18.90
2017-06-03T20:54:02.627Z,18.90
2017-06-03T20:56:28.813Z,18.80
2017-06-03T20:58:55.033Z,18.70
2017-06-03T21:01:21.264Z,18.50
2017-06-03T21:03:47.469Z,18.50
2017-06-03T21:06:13.700Z,18.40
2017-06-03T21:08:40.408Z,18.20
2017-06-03T21:11:06.604Z,18.10
2017-06-03T21:13:32.820Z,18.00
2017-06-03T21:15:59.064Z,18.00
2017-06-03T21:18:25.335Z,17.90
2017-06-03T21:20:52.285Z,17.80
2017-06-03T21:23:18.516Z,17.80
2017-06-03T21:25:44.743Z,17.70
2017-06-03T21:28:10.945Z,17.80
2017-06-03T21:30:37.194Z,17.70
2017-06-03T21:33:03.438Z,17.70
2017-06-03T21:35:29.649Z,17.60
2017-06-03T21:37:55.864Z,17.60
2017-06-03T21:40:22.864Z,17.20
2017-06-03T21:42:49.089Z,17.20
2017-06-03T21:45:15.286Z,17.20
2017-06-03T21:47:41.537Z,17.20
2017-06-03T21:50:07.796Z,17.10
2017-06-03T21:52:34.000Z,17.10
2017-06-03T21:55:00.204Z,17.10
2017-06-03T21:57:26.443Z,17.10
2017-06-03T21:59:52.713Z,17.00
2017-06-03T22:02:18.971Z,17.00
2017-06-03T22:04:45.164Z,16.80
2017-06-03T22:07:11.377Z,16.80
2017-06-03T22:09:37.633Z,16.80
2017-06-03T22:12:03.833Z,16.90
2017-06-03T22:14:30.040Z,16.90
2017-06-03T22:16:56.300Z,16.90
2017-06-03T22:19:22.524Z,16.90
2017-06-03T22:21:48.741Z,16.90
2017-06-03T22:24:14.970Z,16.90
2017-06-03T22:26:41.189Z,17.00
2017-06-03T22:29:07.397Z,16.90
2017-06-03T22:31:33.636Z,16.90
2017-06-03T22:33:59.843Z,16.80
2017-06-03T22:36:26.038Z,16.80
2017-06-03T22:38:53.992Z,16.50
2017-06-03T22:41:20.183Z,16.50
2017-06-03T22:43:46.512Z,16.60
2017-06-03T22:46:12.710Z,16.50
2017-06-03T22:48:38.921Z,16.40
2017-06-03T22:51:05.148Z,16.50
2017-06-03T22:53:32.104Z,16.40
2017-06-03T22:55:58.342Z,16.40
2017-06-03T22:58:24.541Z,16.30
2017-06-03T23:00:51.479Z,16.50
2017-06-03T23:03:18.449Z,16.60
2017-06-03T23:05:44.698Z,16.50
2017-06-03T23:08:10.888Z,16.70
2017-06-03T23:10:37.858Z,16.10
2017-06-03T23:13:04.057Z,16.10
2017-06-03T23:15:30.249Z,15.90
2017-06-03T23:17:56.478Z,16.00
2017-06-03T23:20:22.675Z,16.00
2017-06-03T23:22:48.868Z,16.00
2017-06-03T23:25:15.105Z,16.00
2017-06-03T23:27:42.141Z,16.00
2017-06-03T23:30:09.059Z,15.90
2017-06-03T23:32:35.284Z,15.90
2017-06-03T23:35:01.468Z,16.00
2017-06-03T23:37:27.660Z,15.90
2017-06-03T23:39:53.853Z,15.90
2017-06-03T23:42:20.042Z,15.90
2017-06-03T23:44:46.240Z,16.00
2017-06-03T23:47:13.198Z,15.90
2017-06-03T23:49:39.376Z,15.90
2017-06-03T23:52:05.559Z,15.90
2017-06-03T23:54:31.800Z,15.90
2017-06-03T23:56:57.968Z,15.80
2017-06-03T23:59:24.161Z,15.80
